sensor_id;sensor_type;location;lat;lon;timestamp;P1;durP1;ratioP1;P2;durP2;ratioP2
24159;SDS011;62385;41.594;23.808;2024-01-25T00:01:08;1.33;;;1.23;;
24159;SDS011;62385;41.594;23.808;2024-01-25T00:03:34;6.07;;;3.97;;
24159;SDS011;62385;41.594;23.808;2024-01-25T00:05:59;1.67;;;1.57;;
24159;SDS011;62385;41.594;23.808;2024-01-25T00:08:25;4.03;;;1.50;;
24159;SDS011;62385;41.594;23.808;2024-01-25T00:10:51;1.57;;;1.43;;
24159;SDS011;62385;41.594;23.808;2024-01-25T00:13:16;0.50;;;0.50;;
24159;SDS011;62385;41.594;23.808;2024-01-25T00:15:42;0.90;;;0.90;;
24159;SDS011;62385;41.594;23.808;2024-01-25T00:18:08;1.40;;;0.80;;
24159;SDS011;62385;41.594;23.808;2024-01-25T00:20:34;3.00;;;1.70;;
24159;SDS011;62385;41.594;23.808;2024-01-25T00:22:59;2.83;;;1.80;;
24159;SDS011;62385;41.594;23.808;2024-01-25T00:25:25;1.07;;;1.07;;
24159;SDS011;62385;41.594;23.808;2024-01-25T00:27:50;1.20;;;0.93;;
24159;SDS011;62385;41.594;23.808;2024-01-25T00:30:16;0.20;;;0.17;;
24159;SDS011;62385;41.594;23.808;2024-01-25T00:32:42;1.13;;;1.13;;
24159;SDS011;62385;41.594;23.808;2024-01-25T00:35:08;0.40;;;0.40;;
24159;SDS011;62385;41.594;23.808;2024-01-25T00:37:36;1.30;;;1.03;;
24159;SDS011;62385;41.594;23.808;2024-01-25T00:40:02;12.37;;;1.57;;
24159;SDS011;62385;41.594;23.808;2024-01-25T00:42:28;0.23;;;0.23;;
24159;SDS011;62385;41.594;23.808;2024-01-25T00:44:55;15.47;;;2.27;;
24159;SDS011;62385;41.594;23.808;2024-01-25T00:47:21;1.23;;;1.00;;
24159;SDS011;62385;41.594;23.808;2024-01-25T00:49:47;1.10;;;1.10;;
24159;SDS011;62385;41.594;23.808;2024-01-25T00:52:13;2.10;;;1.20;;
24159;SDS011;62385;41.594;23.808;2024-01-25T00:54:39;2.93;;;2.37;;
24159;SDS011;62385;41.594;23.808;2024-01-25T00:57:05;5.70;;;3.23;;
24159;SDS011;62385;41.594;23.808;2024-01-25T00:59:31;8.77;;;2.43;;
24159;SDS011;62385;41.594;23.808;2024-01-25T01:01:58;15.63;;;3.97;;
24159;SDS011;62385;41.594;23.808;2024-01-25T01:04:25;20.43;;;5.57;;
24159;SDS011;62385;41.594;23.808;2024-01-25T01:06:51;6.40;;;4.27;;
24159;SDS011;62385;41.594;23.808;2024-01-25T01:09:17;3.43;;;3.23;;
24159;SDS011;62385;41.594;23.808;2024-01-25T01:11:43;11.77;;;3.50;;
24159;SDS011;62385;41.594;23.808;2024-01-25T01:14:09;10.30;;;4.63;;
24159;SDS011;62385;41.594;23.808;2024-01-25T01:16:34;13.97;;;4.53;;
24159;SDS011;62385;41.594;23.808;2024-01-25T01:19:01;1.97;;;1.87;;
24159;SDS011;62385;41.594;23.808;2024-01-25T01:21:32;6.00;;;5.07;;
24159;SDS011;62385;41.594;23.808;2024-01-25T01:23:58;12.37;;;5.57;;
24159;SDS011;62385;41.594;23.808;2024-01-25T01:26:24;4.97;;;4.30;;
24159;SDS011;62385;41.594;23.808;2024-01-25T01:28:50;5.23;;;2.97;;
24159;SDS011;62385;41.594;23.808;2024-01-25T01:31:15;7.80;;;4.07;;
24159;SDS011;62385;41.594;23.808;2024-01-25T01:33:41;3.30;;;3.00;;
24159;SDS011;62385;41.594;23.808;2024-01-25T01:36:07;3.27;;;2.97;;
24159;SDS011;62385;41.594;23.808;2024-01-25T01:38:32;6.00;;;4.67;;
24159;SDS011;62385;41.594;23.808;2024-01-25T01:40:58;1.80;;;1.70;;
24159;SDS011;62385;41.594;23.808;2024-01-25T01:43:23;3.40;;;2.97;;
24159;SDS011;62385;41.594;23.808;2024-01-25T01:45:49;5.23;;;3.60;;
24159;SDS011;62385;41.594;23.808;2024-01-25T01:48:16;6.33;;;5.37;;
24159;SDS011;62385;41.594;23.808;2024-01-25T01:50:42;4.60;;;3.67;;
24159;SDS011;62385;41.594;23.808;2024-01-25T01:53:09;9.73;;;3.53;;
24159;SDS011;62385;41.594;23.808;2024-01-25T01:55:36;3.50;;;1.93;;
24159;SDS011;62385;41.594;23.808;2024-01-25T01:58:02;2.40;;;2.20;;
24159;SDS011;62385;41.594;23.808;2024-01-25T02:00:29;4.37;;;2.80;;
24159;SDS011;62385;41.594;23.808;2024-01-25T02:02:58;3.43;;;2.70;;
24159;SDS011;62385;41.594;23.808;2024-01-25T02:05:24;4.43;;;4.00;;
24159;SDS011;62385;41.594;23.808;2024-01-25T02:07:50;2.80;;;2.17;;
24159;SDS011;62385;41.594;23.808;2024-01-25T02:10:17;1.53;;;1.30;;
24159;SDS011;62385;41.594;23.808;2024-01-25T02:12:43;8.83;;;3.43;;
24159;SDS011;62385;41.594;23.808;2024-01-25T02:15:09;4.20;;;3.23;;
24159;SDS011;62385;41.594;23.808;2024-01-25T02:17:34;2.20;;;1.50;;
24159;SDS011;62385;41.594;23.808;2024-01-25T02:20:00;2.20;;;1.87;;
24159;SDS011;62385;41.594;23.808;2024-01-25T02:22:28;2.10;;;1.83;;
24159;SDS011;62385;41.594;23.808;2024-01-25T02:24:54;1.87;;;1.67;;
24159;SDS011;62385;41.594;23.808;2024-01-25T02:27:19;2.73;;;2.53;;
24159;SDS011;62385;41.594;23.808;2024-01-25T02:29:45;2.03;;;1.83;;
24159;SDS011;62385;41.594;23.808;2024-01-25T02:32:11;1.87;;;1.77;;
24159;SDS011;62385;41.594;23.808;2024-01-25T02:34:37;2.30;;;1.10;;
24159;SDS011;62385;41.594;23.808;2024-01-25T02:37:02;6.10;;;2.70;;
24159;SDS011;62385;41.594;23.808;2024-01-25T02:39:28;2.27;;;2.13;;
24159;SDS011;62385;41.594;23.808;2024-01-25T02:41:54;4.10;;;3.70;;
24159;SDS011;62385;41.594;23.808;2024-01-25T02:44:19;4.07;;;2.60;;
24159;SDS011;62385;41.594;23.808;2024-01-25T02:46:45;2.77;;;1.53;;
24159;SDS011;62385;41.594;23.808;2024-01-25T02:49:12;3.40;;;2.60;;
24159;SDS011;62385;41.594;23.808;2024-01-25T02:51:37;5.27;;;3.00;;
24159;SDS011;62385;41.594;23.808;2024-01-25T02:54:03;4.77;;;3.03;;
24159;SDS011;62385;41.594;23.808;2024-01-25T02:56:29;2.97;;;2.77;;
24159;SDS011;62385;41.594;23.808;2024-01-25T02:59:00;4.87;;;4.47;;
24159;SDS011;62385;41.594;23.808;2024-01-25T03:01:28;9.77;;;4.20;;
24159;SDS011;62385;41.594;23.808;2024-01-25T03:04:02;9.17;;;5.90;;
24159;SDS011;62385;41.594;23.808;2024-01-25T03:06:28;5.03;;;4.03;;
24159;SDS011;62385;41.594;23.808;2024-01-25T03:08:54;3.97;;;2.40;;
24159;SDS011;62385;41.594;23.808;2024-01-25T03:11:19;6.83;;;4.53;;
24159;SDS011;62385;41.594;23.808;2024-01-25T03:13:45;5.50;;;3.50;;
24159;SDS011;62385;41.594;23.808;2024-01-25T03:16:11;7.40;;;2.80;;
24159;SDS011;62385;41.594;23.808;2024-01-25T03:18:36;1.73;;;1.57;;
24159;SDS011;62385;41.594;23.808;2024-01-25T03:21:02;3.23;;;2.90;;
24159;SDS011;62385;41.594;23.808;2024-01-25T03:23:28;5.90;;;2.57;;
24159;SDS011;62385;41.594;23.808;2024-01-25T03:25:53;2.50;;;2.30;;
24159;SDS011;62385;41.594;23.808;2024-01-25T03:28:19;4.87;;;4.47;;
24159;SDS011;62385;41.594;23.808;2024-01-25T03:30:45;5.13;;;2.30;;
24159;SDS011;62385;41.594;23.808;2024-01-25T03:33:10;12.03;;;6.23;;
24159;SDS011;62385;41.594;23.808;2024-01-25T03:35:36;4.30;;;2.20;;
24159;SDS011;62385;41.594;23.808;2024-01-25T03:38:02;5.90;;;1.43;;
24159;SDS011;62385;41.594;23.808;2024-01-25T03:40:27;3.13;;;2.13;;
24159;SDS011;62385;41.594;23.808;2024-01-25T03:42:53;6.63;;;1.83;;
24159;SDS011;62385;41.594;23.808;2024-01-25T03:45:19;2.53;;;1.50;;
24159;SDS011;62385;41.594;23.808;2024-01-25T03:47:44;1.13;;;1.07;;
24159;SDS011;62385;41.594;23.808;2024-01-25T03:50:10;1.77;;;1.67;;
24159;SDS011;62385;41.594;23.808;2024-01-25T03:52:35;2.10;;;1.93;;
24159;SDS011;62385;41.594;23.808;2024-01-25T03:55:01;1.07;;;1.07;;
24159;SDS011;62385;41.594;23.808;2024-01-25T03:57:27;3.20;;;1.80;;
24159;SDS011;62385;41.594;23.808;2024-01-25T03:59:52;8.63;;;3.27;;
24159;SDS011;62385;41.594;23.808;2024-01-25T04:02:18;3.40;;;2.33;;
24159;SDS011;62385;41.594;23.808;2024-01-25T04:04:44;9.07;;;4.50;;
24159;SDS011;62385;41.594;23.808;2024-01-25T04:07:09;25.27;;;10.43;;
24159;SDS011;62385;41.594;23.808;2024-01-25T04:09:35;7.93;;;5.40;;
24159;SDS011;62385;41.594;23.808;2024-01-25T04:12:00;8.53;;;4.50;;
24159;SDS011;62385;41.594;23.808;2024-01-25T04:14:26;5.03;;;3.90;;
24159;SDS011;62385;41.594;23.808;2024-01-25T04:16:52;9.20;;;4.43;;
24159;SDS011;62385;41.594;23.808;2024-01-25T04:19:17;2.50;;;2.30;;
24159;SDS011;62385;41.594;23.808;2024-01-25T04:21:43;2.00;;;1.90;;
24159;SDS011;62385;41.594;23.808;2024-01-25T04:24:08;1.53;;;1.43;;
24159;SDS011;62385;41.594;23.808;2024-01-25T04:26:34;2.20;;;2.00;;
24159;SDS011;62385;41.594;23.808;2024-01-25T04:29:00;3.87;;;1.60;;
24159;SDS011;62385;41.594;23.808;2024-01-25T04:31:25;1.40;;;0.77;;
24159;SDS011;62385;41.594;23.808;2024-01-25T04:33:51;1.67;;;1.57;;
24159;SDS011;62385;41.594;23.808;2024-01-25T04:36:17;1.60;;;1.00;;
24159;SDS011;62385;41.594;23.808;2024-01-25T04:38:42;4.13;;;2.90;;
24159;SDS011;62385;41.594;23.808;2024-01-25T04:41:08;2.27;;;2.10;;
24159;SDS011;62385;41.594;23.808;2024-01-25T04:43:34;11.93;;;6.40;;
24159;SDS011;62385;41.594;23.808;2024-01-25T04:46:01;28.70;;;16.33;;
24159;SDS011;62385;41.594;23.808;2024-01-25T04:48:28;8.20;;;7.00;;
24159;SDS011;62385;41.594;23.808;2024-01-25T04:50:55;6.67;;;6.00;;
24159;SDS011;62385;41.594;23.808;2024-01-25T04:53:22;7.50;;;4.37;;
24159;SDS011;62385;41.594;23.808;2024-01-25T04:55:47;9.23;;;7.37;;
24159;SDS011;62385;41.594;23.808;2024-01-25T04:58:13;9.87;;;7.83;;
24159;SDS011;62385;41.594;23.808;2024-01-25T05:00:39;10.80;;;7.90;;
24159;SDS011;62385;41.594;23.808;2024-01-25T05:03:05;6.90;;;3.83;;
24159;SDS011;62385;41.594;23.808;2024-01-25T05:05:31;4.73;;;4.33;;
24159;SDS011;62385;41.594;23.808;2024-01-25T05:07:56;7.77;;;4.93;;
24159;SDS011;62385;41.594;23.808;2024-01-25T05:10:22;11.47;;;5.87;;
24159;SDS011;62385;41.594;23.808;2024-01-25T05:12:48;6.83;;;5.80;;
24159;SDS011;62385;41.594;23.808;2024-01-25T05:15:14;5.33;;;4.47;;
24159;SDS011;62385;41.594;23.808;2024-01-25T05:17:39;4.40;;;3.30;;
24159;SDS011;62385;41.594;23.808;2024-01-25T05:20:05;12.70;;;6.43;;
24159;SDS011;62385;41.594;23.808;2024-01-25T05:22:32;2.67;;;2.47;;
24159;SDS011;62385;41.594;23.808;2024-01-25T05:24:57;9.23;;;4.57;;
24159;SDS011;62385;41.594;23.808;2024-01-25T05:27:23;5.50;;;5.00;;
24159;SDS011;62385;41.594;23.808;2024-01-25T05:29:48;21.23;;;14.97;;
24159;SDS011;62385;41.594;23.808;2024-01-25T05:32:14;5.63;;;5.07;;
24159;SDS011;62385;41.594;23.808;2024-01-25T05:34:40;3.23;;;2.60;;
24159;SDS011;62385;41.594;23.808;2024-01-25T05:37:05;3.33;;;2.93;;
24159;SDS011;62385;41.594;23.808;2024-01-25T05:39:31;3.53;;;3.30;;
24159;SDS011;62385;41.594;23.808;2024-01-25T05:41:57;1.90;;;1.60;;
24159;SDS011;62385;41.594;23.808;2024-01-25T05:44:23;2.30;;;2.10;;
24159;SDS011;62385;41.594;23.808;2024-01-25T05:46:49;2.53;;;2.33;;
24159;SDS011;62385;41.594;23.808;2024-01-25T05:49:14;3.57;;;2.47;;
24159;SDS011;62385;41.594;23.808;2024-01-25T05:51:40;3.60;;;3.30;;
24159;SDS011;62385;41.594;23.808;2024-01-25T05:54:06;2.80;;;2.57;;
24159;SDS011;62385;41.594;23.808;2024-01-25T05:56:31;4.30;;;2.47;;
24159;SDS011;62385;41.594;23.808;2024-01-25T05:58:57;2.50;;;2.07;;
24159;SDS011;62385;41.594;23.808;2024-01-25T06:01:23;5.97;;;3.00;;
24159;SDS011;62385;41.594;23.808;2024-01-25T06:03:50;6.83;;;6.23;;
24159;SDS011;62385;41.594;23.808;2024-01-25T06:06:15;5.20;;;3.77;;
24159;SDS011;62385;41.594;23.808;2024-01-25T06:08:41;6.13;;;3.63;;
24159;SDS011;62385;41.594;23.808;2024-01-25T06:11:07;6.90;;;4.40;;
24159;SDS011;62385;41.594;23.808;2024-01-25T06:13:35;4.90;;;3.33;;
24159;SDS011;62385;41.594;23.808;2024-01-25T06:16:01;10.40;;;4.50;;
24159;SDS011;62385;41.594;23.808;2024-01-25T06:18:26;6.47;;;4.50;;
24159;SDS011;62385;41.594;23.808;2024-01-25T06:20:52;3.80;;;2.43;;
24159;SDS011;62385;41.594;23.808;2024-01-25T06:23:18;13.27;;;6.53;;
24159;SDS011;62385;41.594;23.808;2024-01-25T06:25:43;6.83;;;2.50;;
24159;SDS011;62385;41.594;23.808;2024-01-25T06:28:09;5.20;;;4.70;;
24159;SDS011;62385;41.594;23.808;2024-01-25T06:30:35;3.13;;;2.93;;
24159;SDS011;62385;41.594;23.808;2024-01-25T06:33:01;9.10;;;6.37;;
24159;SDS011;62385;41.594;23.808;2024-01-25T06:35:26;5.07;;;3.60;;
24159;SDS011;62385;41.594;23.808;2024-01-25T06:37:52;7.90;;;3.00;;
24159;SDS011;62385;41.594;23.808;2024-01-25T06:40:18;8.67;;;5.27;;
24159;SDS011;62385;41.594;23.808;2024-01-25T06:42:43;4.77;;;3.57;;
24159;SDS011;62385;41.594;23.808;2024-01-25T06:45:10;9.87;;;6.20;;
24159;SDS011;62385;41.594;23.808;2024-01-25T06:47:35;7.37;;;4.83;;
24159;SDS011;62385;41.594;23.808;2024-01-25T06:50:01;12.90;;;5.67;;
24159;SDS011;62385;41.594;23.808;2024-01-25T06:52:27;8.20;;;7.33;;
24159;SDS011;62385;41.594;23.808;2024-01-25T06:54:53;5.17;;;4.57;;
24159;SDS011;62385;41.594;23.808;2024-01-25T06:57:19;4.77;;;4.37;;
24159;SDS011;62385;41.594;23.808;2024-01-25T06:59:45;8.60;;;6.60;;
24159;SDS011;62385;41.594;23.808;2024-01-25T07:02:11;9.07;;;6.30;;
24159;SDS011;62385;41.594;23.808;2024-01-25T07:04:37;14.77;;;7.30;;
24159;SDS011;62385;41.594;23.808;2024-01-25T07:07:06;9.93;;;7.17;;
24159;SDS011;62385;41.594;23.808;2024-01-25T07:09:32;7.80;;;5.63;;
24159;SDS011;62385;41.594;23.808;2024-01-25T07:11:57;7.33;;;2.13;;
24159;SDS011;62385;41.594;23.808;2024-01-25T07:14:23;5.27;;;4.77;;
24159;SDS011;62385;41.594;23.808;2024-01-25T07:16:49;4.57;;;4.13;;
24159;SDS011;62385;41.594;23.808;2024-01-25T07:19:14;6.70;;;4.60;;
24159;SDS011;62385;41.594;23.808;2024-01-25T07:21:40;8.77;;;6.13;;
24159;SDS011;62385;41.594;23.808;2024-01-25T07:24:06;12.30;;;6.97;;
24159;SDS011;62385;41.594;23.808;2024-01-25T07:26:31;29.13;;;13.70;;
24159;SDS011;62385;41.594;23.808;2024-01-25T07:28:57;17.67;;;13.50;;
24159;SDS011;62385;41.594;23.808;2024-01-25T07:31:27;12.10;;;5.87;;
24159;SDS011;62385;41.594;23.808;2024-01-25T07:33:53;6.87;;;4.40;;
24159;SDS011;62385;41.594;23.808;2024-01-25T07:36:19;7.77;;;4.57;;
24159;SDS011;62385;41.594;23.808;2024-01-25T07:38:45;13.27;;;5.43;;
24159;SDS011;62385;41.594;23.808;2024-01-25T07:41:14;16.07;;;11.73;;
24159;SDS011;62385;41.594;23.808;2024-01-25T07:43:40;12.03;;;6.80;;
24159;SDS011;62385;41.594;23.808;2024-01-25T07:46:06;9.17;;;4.77;;
24159;SDS011;62385;41.594;23.808;2024-01-25T07:48:32;8.73;;;5.80;;
24159;SDS011;62385;41.594;23.808;2024-01-25T07:50:58;4.57;;;3.90;;
24159;SDS011;62385;41.594;23.808;2024-01-25T07:53:24;10.70;;;3.73;;
24159;SDS011;62385;41.594;23.808;2024-01-25T07:55:50;4.17;;;2.73;;
24159;SDS011;62385;41.594;23.808;2024-01-25T07:58:15;5.37;;;3.13;;
24159;SDS011;62385;41.594;23.808;2024-01-25T08:00:41;4.30;;;3.90;;
24159;SDS011;62385;41.594;23.808;2024-01-25T08:03:07;10.20;;;6.23;;
24159;SDS011;62385;41.594;23.808;2024-01-25T08:05:33;8.03;;;6.90;;
24159;SDS011;62385;41.594;23.808;2024-01-25T08:07:59;9.20;;;7.70;;
24159;SDS011;62385;41.594;23.808;2024-01-25T08:10:25;9.90;;;8.03;;
24159;SDS011;62385;41.594;23.808;2024-01-25T08:12:51;11.27;;;4.17;;
24159;SDS011;62385;41.594;23.808;2024-01-25T08:15:17;9.17;;;4.37;;
24159;SDS011;62385;41.594;23.808;2024-01-25T08:17:43;5.23;;;4.23;;
24159;SDS011;62385;41.594;23.808;2024-01-25T08:20:09;9.40;;;4.67;;
24159;SDS011;62385;41.594;23.808;2024-01-25T08:22:38;7.67;;;4.03;;
24159;SDS011;62385;41.594;23.808;2024-01-25T08:25:03;6.10;;;3.77;;
24159;SDS011;62385;41.594;23.808;2024-01-25T08:27:30;4.63;;;4.20;;
24159;SDS011;62385;41.594;23.808;2024-01-25T08:29:55;4.90;;;3.50;;
24159;SDS011;62385;41.594;23.808;2024-01-25T08:32:21;4.73;;;3.60;;
24159;SDS011;62385;41.594;23.808;2024-01-25T08:34:47;4.67;;;3.33;;
24159;SDS011;62385;41.594;23.808;2024-01-25T08:37:12;19.00;;;4.70;;
24159;SDS011;62385;41.594;23.808;2024-01-25T08:39:38;7.93;;;4.57;;
24159;SDS011;62385;41.594;23.808;2024-01-25T08:42:03;7.33;;;4.97;;
24159;SDS011;62385;41.594;23.808;2024-01-25T08:44:31;4.47;;;3.50;;
24159;SDS011;62385;41.594;23.808;2024-01-25T08:46:57;9.77;;;4.37;;
24159;SDS011;62385;41.594;23.808;2024-01-25T08:49:23;11.03;;;4.97;;
24159;SDS011;62385;41.594;23.808;2024-01-25T08:51:48;7.70;;;3.07;;
24159;SDS011;62385;41.594;23.808;2024-01-25T08:54:14;4.33;;;3.50;;
24159;SDS011;62385;41.594;23.808;2024-01-25T08:56:39;9.20;;;2.97;;
24159;SDS011;62385;41.594;23.808;2024-01-25T08:59:05;7.03;;;4.37;;
24159;SDS011;62385;41.594;23.808;2024-01-25T09:01:31;3.07;;;2.77;;
24159;SDS011;62385;41.594;23.808;2024-01-25T09:03:56;12.60;;;4.80;;
24159;SDS011;62385;41.594;23.808;2024-01-25T09:06:27;4.20;;;3.57;;
24159;SDS011;62385;41.594;23.808;2024-01-25T09:08:53;7.80;;;4.93;;
24159;SDS011;62385;41.594;23.808;2024-01-25T09:11:19;11.57;;;4.37;;
24159;SDS011;62385;41.594;23.808;2024-01-25T09:13:44;18.43;;;4.47;;
24159;SDS011;62385;41.594;23.808;2024-01-25T09:16:12;10.20;;;2.87;;
24159;SDS011;62385;41.594;23.808;2024-01-25T09:18:38;8.73;;;5.23;;
24159;SDS011;62385;41.594;23.808;2024-01-25T09:21:04;4.07;;;3.70;;
24159;SDS011;62385;41.594;23.808;2024-01-25T09:23:30;6.73;;;3.77;;
24159;SDS011;62385;41.594;23.808;2024-01-25T09:25:55;8.63;;;6.47;;
24159;SDS011;62385;41.594;23.808;2024-01-25T09:28:21;17.33;;;7.27;;
24159;SDS011;62385;41.594;23.808;2024-01-25T09:30:46;13.00;;;6.17;;
24159;SDS011;62385;41.594;23.808;2024-01-25T09:33:12;9.80;;;4.67;;
24159;SDS011;62385;41.594;23.808;2024-01-25T09:35:38;11.37;;;7.27;;
24159;SDS011;62385;41.594;23.808;2024-01-25T09:38:03;12.13;;;7.10;;
24159;SDS011;62385;41.594;23.808;2024-01-25T09:40:29;10.30;;;4.57;;
24159;SDS011;62385;41.594;23.808;2024-01-25T09:42:55;15.37;;;9.50;;
24159;SDS011;62385;41.594;23.808;2024-01-25T09:45:21;12.63;;;8.33;;
24159;SDS011;62385;41.594;23.808;2024-01-25T09:47:47;6.97;;;4.20;;
24159;SDS011;62385;41.594;23.808;2024-01-25T09:50:13;3.60;;;2.70;;
24159;SDS011;62385;41.594;23.808;2024-01-25T09:52:39;1.63;;;1.53;;
24159;SDS011;62385;41.594;23.808;2024-01-25T09:55:12;3.80;;;1.67;;
24159;SDS011;62385;41.594;23.808;2024-01-25T09:57:44;1.53;;;1.37;;
24159;SDS011;62385;41.594;23.808;2024-01-25T10:00:12;1.13;;;1.07;;
24159;SDS011;62385;41.594;23.808;2024-01-25T10:02:38;1.50;;;1.00;;
24159;SDS011;62385;41.594;23.808;2024-01-25T10:05:04;2.47;;;2.27;;
24159;SDS011;62385;41.594;23.808;2024-01-25T10:07:39;3.50;;;3.23;;
24159;SDS011;62385;41.594;23.808;2024-01-25T10:10:06;3.03;;;1.93;;
24159;SDS011;62385;41.594;23.808;2024-01-25T10:12:32;4.13;;;1.73;;
24159;SDS011;62385;41.594;23.808;2024-01-25T10:14:58;6.73;;;6.03;;
24159;SDS011;62385;41.594;23.808;2024-01-25T10:17:25;5.20;;;4.27;;
24159;SDS011;62385;41.594;23.808;2024-01-25T10:19:52;2.50;;;1.63;;
24159;SDS011;62385;41.594;23.808;2024-01-25T10:22:18;1.93;;;0.87;;
24159;SDS011;62385;41.594;23.808;2024-01-25T10:24:44;0.30;;;0.27;;
24159;SDS011;62385;41.594;23.808;2024-01-25T10:27:10;0.27;;;0.20;;
24159;SDS011;62385;41.594;23.808;2024-01-25T10:29:36;3.80;;;0.50;;
24159;SDS011;62385;41.594;23.808;2024-01-25T10:32:05;0.20;;;0.20;;
24159;SDS011;62385;41.594;23.808;2024-01-25T10:34:34;0.20;;;0.20;;
24159;SDS011;62385;41.594;23.808;2024-01-25T10:37:01;0.30;;;0.20;;
24159;SDS011;62385;41.594;23.808;2024-01-25T10:39:28;4.43;;;0.98;;
24159;SDS011;62385;41.594;23.808;2024-01-25T10:41:55;4.18;;;1.40;;
24159;SDS011;62385;41.594;23.808;2024-01-25T10:44:21;0.85;;;0.85;;
24159;SDS011;62385;41.594;23.808;2024-01-25T10:46:47;0.20;;;0.20;;
24159;SDS011;62385;41.594;23.808;2024-01-25T10:49:13;0.30;;;0.28;;
24159;SDS011;62385;41.594;23.808;2024-01-25T10:51:48;0.55;;;0.47;;
24159;SDS011;62385;41.594;23.808;2024-01-25T10:54:15;4.03;;;0.22;;
24159;SDS011;62385;41.594;23.808;2024-01-25T10:56:42;0.93;;;0.32;;
24159;SDS011;62385;41.594;23.808;2024-01-25T10:59:08;6.10;;;1.00;;
24159;SDS011;62385;41.594;23.808;2024-01-25T11:01:36;0.20;;;0.10;;
24159;SDS011;62385;41.594;23.808;2024-01-25T11:04:15;0.30;;;0.15;;
24159;SDS011;62385;41.594;23.808;2024-01-25T11:06:43;2.50;;;0.65;;
24159;SDS011;62385;41.594;23.808;2024-01-25T11:09:10;0.20;;;0.20;;
24159;SDS011;62385;41.594;23.808;2024-01-25T11:11:46;1.58;;;1.17;;
24159;SDS011;62385;41.594;23.808;2024-01-25T11:14:16;0.43;;;0.43;;
24159;SDS011;62385;41.594;23.808;2024-01-25T11:16:42;0.30;;;0.10;;
24159;SDS011;62385;41.594;23.808;2024-01-25T11:19:19;0.50;;;0.40;;
24159;SDS011;62385;41.594;23.808;2024-01-25T11:21:50;2.00;;;0.60;;
24159;SDS011;62385;41.594;23.808;2024-01-25T11:24:17;0.82;;;0.82;;
24159;SDS011;62385;41.594;23.808;2024-01-25T11:26:46;0.35;;;0.20;;
24159;SDS011;62385;41.594;23.808;2024-01-25T11:29:16;3.35;;;1.27;;
24159;SDS011;62385;41.594;23.808;2024-01-25T11:31:43;1.55;;;0.80;;
24159;SDS011;62385;41.594;23.808;2024-01-25T11:34:10;0.30;;;0.30;;
24159;SDS011;62385;41.594;23.808;2024-01-25T11:36:36;0.20;;;0.10;;
24159;SDS011;62385;41.594;23.808;2024-01-25T11:39:02;0.40;;;0.30;;
24159;SDS011;62385;41.594;23.808;2024-01-25T11:41:30;6.50;;;0.90;;
24159;SDS011;62385;41.594;23.808;2024-01-25T11:43:56;3.22;;;1.10;;
24159;SDS011;62385;41.594;23.808;2024-01-25T11:46:21;0.85;;;0.52;;
24159;SDS011;62385;41.594;23.808;2024-01-25T11:48:50;0.60;;;0.38;;
24159;SDS011;62385;41.594;23.808;2024-01-25T11:51:15;3.97;;;1.10;;
24159;SDS011;62385;41.594;23.808;2024-01-25T11:53:41;0.93;;;0.40;;
24159;SDS011;62385;41.594;23.808;2024-01-25T11:56:07;0.20;;;0.20;;
24159;SDS011;62385;41.594;23.808;2024-01-25T11:58:36;0.98;;;0.30;;
24159;SDS011;62385;41.594;23.808;2024-01-25T12:01:04;0.60;;;0.60;;
24159;SDS011;62385;41.594;23.808;2024-01-25T12:03:33;3.28;;;0.98;;
24159;SDS011;62385;41.594;23.808;2024-01-25T12:06:02;0.52;;;0.52;;
24159;SDS011;62385;41.594;23.808;2024-01-25T12:08:31;2.10;;;0.88;;
24159;SDS011;62385;41.594;23.808;2024-01-25T12:11:03;0.55;;;0.50;;
24159;SDS011;62385;41.594;23.808;2024-01-25T12:13:33;1.48;;;0.98;;
24159;SDS011;62385;41.594;23.808;2024-01-25T12:16:00;0.77;;;0.55;;
24159;SDS011;62385;41.594;23.808;2024-01-25T12:18:26;1.95;;;1.20;;
24159;SDS011;62385;41.594;23.808;2024-01-25T12:20:53;1.92;;;0.22;;
24159;SDS011;62385;41.594;23.808;2024-01-25T12:23:19;0.85;;;0.80;;
24159;SDS011;62385;41.594;23.808;2024-01-25T12:25:45;1.00;;;0.50;;
24159;SDS011;62385;41.594;23.808;2024-01-25T12:28:10;0.40;;;0.32;;
24159;SDS011;62385;41.594;23.808;2024-01-25T12:30:36;0.40;;;0.40;;
24159;SDS011;62385;41.594;23.808;2024-01-25T12:33:02;0.95;;;0.80;;
24159;SDS011;62385;41.594;23.808;2024-01-25T12:35:28;3.00;;;2.38;;
24159;SDS011;62385;41.594;23.808;2024-01-25T12:37:54;1.10;;;0.40;;
24159;SDS011;62385;41.594;23.808;2024-01-25T12:40:20;0.63;;;0.63;;
24159;SDS011;62385;41.594;23.808;2024-01-25T12:42:45;2.13;;;0.30;;
24159;SDS011;62385;41.594;23.808;2024-01-25T12:45:11;12.73;;;1.30;;
24159;SDS011;62385;41.594;23.808;2024-01-25T12:47:39;0.40;;;0.30;;
24159;SDS011;62385;41.594;23.808;2024-01-25T12:50:05;0.98;;;0.50;;
24159;SDS011;62385;41.594;23.808;2024-01-25T12:52:30;1.10;;;0.90;;
24159;SDS011;62385;41.594;23.808;2024-01-25T12:54:57;3.25;;;0.68;;
24159;SDS011;62385;41.594;23.808;2024-01-25T12:57:23;0.90;;;0.85;;
24159;SDS011;62385;41.594;23.808;2024-01-25T12:59:48;1.50;;;0.67;;
24159;SDS011;62385;41.594;23.808;2024-01-25T13:02:15;6.93;;;0.55;;
24159;SDS011;62385;41.594;23.808;2024-01-25T13:04:40;3.03;;;1.40;;
24159;SDS011;62385;41.594;23.808;2024-01-25T13:07:06;1.20;;;0.82;;
24159;SDS011;62385;41.594;23.808;2024-01-25T13:09:31;1.00;;;0.70;;
24159;SDS011;62385;41.594;23.808;2024-01-25T13:11:59;3.45;;;1.45;;
24159;SDS011;62385;41.594;23.808;2024-01-25T13:14:26;1.80;;;1.27;;
24159;SDS011;62385;41.594;23.808;2024-01-25T13:16:51;1.15;;;0.98;;
24159;SDS011;62385;41.594;23.808;2024-01-25T13:19:17;1.52;;;1.42;;
24159;SDS011;62385;41.594;23.808;2024-01-25T13:21:43;1.45;;;1.20;;
24159;SDS011;62385;41.594;23.808;2024-01-25T13:24:08;5.28;;;1.00;;
24159;SDS011;62385;41.594;23.808;2024-01-25T13:26:35;1.10;;;1.10;;
24159;SDS011;62385;41.594;23.808;2024-01-25T13:29:01;0.63;;;0.52;;
24159;SDS011;62385;41.594;23.808;2024-01-25T13:31:26;2.63;;;1.65;;
24159;SDS011;62385;41.594;23.808;2024-01-25T13:33:52;2.38;;;0.40;;
24159;SDS011;62385;41.594;23.808;2024-01-25T13:36:17;3.05;;;1.90;;
24159;SDS011;62385;41.594;23.808;2024-01-25T13:38:43;1.95;;;1.17;;
24159;SDS011;62385;41.594;23.808;2024-01-25T13:41:08;1.43;;;0.97;;
24159;SDS011;62385;41.594;23.808;2024-01-25T13:43:34;0.82;;;0.75;;
24159;SDS011;62385;41.594;23.808;2024-01-25T13:45:59;1.20;;;1.10;;
24159;SDS011;62385;41.594;23.808;2024-01-25T13:48:25;0.60;;;0.40;;
24159;SDS011;62385;41.594;23.808;2024-01-25T13:50:51;2.45;;;1.63;;
24159;SDS011;62385;41.594;23.808;2024-01-25T13:53:17;2.40;;;1.70;;
24159;SDS011;62385;41.594;23.808;2024-01-25T13:55:42;2.57;;;2.17;;
24159;SDS011;62385;41.594;23.808;2024-01-25T13:58:09;2.87;;;1.80;;
24159;SDS011;62385;41.594;23.808;2024-01-25T14:00:35;2.00;;;0.93;;
24159;SDS011;62385;41.594;23.808;2024-01-25T14:03:00;4.43;;;0.77;;
24159;SDS011;62385;41.594;23.808;2024-01-25T14:05:26;0.53;;;0.33;;
24159;SDS011;62385;41.594;23.808;2024-01-25T14:07:52;1.00;;;0.87;;
24159;SDS011;62385;41.594;23.808;2024-01-25T14:10:18;1.13;;;0.67;;
24159;SDS011;62385;41.594;23.808;2024-01-25T14:12:45;1.38;;;1.27;;
24159;SDS011;62385;41.594;23.808;2024-01-25T14:15:11;0.50;;;0.50;;
24159;SDS011;62385;41.594;23.808;2024-01-25T14:17:37;0.20;;;0.17;;
24159;SDS011;62385;41.594;23.808;2024-01-25T14:20:03;1.10;;;0.80;;
24159;SDS011;62385;41.594;23.808;2024-01-25T14:22:30;2.20;;;0.98;;
24159;SDS011;62385;41.594;23.808;2024-01-25T14:24:56;1.80;;;1.30;;
24159;SDS011;62385;41.594;23.808;2024-01-25T14:27:21;2.60;;;0.30;;